sensor_id;sensor_type;location;lat;lon;timestamp;pressure;altitude;pressure_sealevel;temperature;humidity
52735;BME280;38631;47.572;10.704;2023-05-07T00:00:52;92528.88;;;10.93;100.00
52735;BME280;38631;47.572;10.704;2023-05-07T00:03:17;92536.59;;;11.03;100.00
52735;BME280;38631;47.572;10.704;2023-05-07T00:05:44;92532.22;;;11.08;100.00
52735;BME280;38631;47.572;10.704;2023-05-07T00:08:09;92528.13;;;11.01;100.00
52735;BME280;38631;47.572;10.704;2023-05-07T00:10:35;92542.28;;;10.88;100.00
52735;BME280;38631;47.572;10.704;2023-05-07T00:13:00;92530.72;;;10.84;100.00
52735;BME280;38631;47.572;10.704;2023-05-07T00:15:26;92531.78;;;10.74;100.00
52735;BME280;38631;47.572;10.704;2023-05-07T00:17:51;92531.66;;;10.88;100.00
52735;BME280;38631;47.572;10.704;2023-05-07T00:20:16;92527.34;;;10.61;100.00
52735;BME280;38631;47.572;10.704;2023-05-07T00:22:42;92534.97;;;10.63;100.00
52735;BME280;38631;47.572;10.704;2023-05-07T00:25:07;92533.53;;;10.88;100.00
52735;BME280;38631;47.572;10.704;2023-05-07T00:27:33;92526.19;;;10.85;100.00
52735;BME280;38631;47.572;10.704;2023-05-07T00:29:58;92525.28;;;10.89;100.00
52735;BME280;38631;47.572;10.704;2023-05-07T00:32:24;92531.00;;;10.82;100.00
52735;BME280;38631;47.572;10.704;2023-05-07T00:34:49;92533.25;;;10.89;100.00
52735;BME280;38631;47.572;10.704;2023-05-07T00:37:16;92533.16;;;10.72;100.00
52735;BME280;38631;47.572;10.704;2023-05-07T00:39:41;92535.94;;;10.67;100.00
52735;BME280;38631;47.572;10.704;2023-05-07T00:42:07;92515.41;;;10.81;100.00
52735;BME280;38631;47.572;10.704;2023-05-07T00:44:33;92528.28;;;10.96;100.00
52735;BME280;38631;47.572;10.704;2023-05-07T00:47:01;92529.47;;;10.90;100.00
52735;BME280;38631;47.572;10.704;2023-05-07T00:49:39;92526.47;;;10.74;100.00
52735;BME280;38631;47.572;10.704;2023-05-07T00:52:07;92530.53;;;10.80;100.00
52735;BME280;38631;47.572;10.704;2023-05-07T00:54:34;92522.94;;;10.56;100.00
52735;BME280;38631;47.572;10.704;2023-05-07T00:57:00;92520.16;;;10.62;100.00
52735;BME280;38631;47.572;10.704;2023-05-07T00:59:27;92517.97;;;10.64;100.00
52735;BME280;38631;47.572;10.704;2023-05-07T01:01:52;92514.31;;;10.82;100.00
52735;BME280;38631;47.572;10.704;2023-05-07T01:04:18;92516.88;;;10.65;100.00
52735;BME280;38631;47.572;10.704;2023-05-07T01:06:44;92506.13;;;10.70;100.00
52735;BME280;38631;47.572;10.704;2023-05-07T01:09:10;92508.22;;;10.50;100.00
52735;BME280;38631;47.572;10.704;2023-05-07T01:11:35;92501.09;;;10.68;100.00
52735;BME280;38631;47.572;10.704;2023-05-07T01:14:01;92498.38;;;10.82;100.00
52735;BME280;38631;47.572;10.704;2023-05-07T01:16:27;92501.78;;;10.82;100.00
52735;BME280;38631;47.572;10.704;2023-05-07T01:18:53;92500.88;;;10.78;100.00
52735;BME280;38631;47.572;10.704;2023-05-07T01:21:25;92501.59;;;10.70;100.00
52735;BME280;38631;47.572;10.704;2023-05-07T01:23:51;92506.41;;;10.68;100.00
52735;BME280;38631;47.572;10.704;2023-05-07T01:26:17;92493.19;;;10.46;100.00
52735;BME280;38631;47.572;10.704;2023-05-07T01:28:44;92508.69;;;10.52;100.00
52735;BME280;38631;47.572;10.704;2023-05-07T01:31:11;92502.75;;;10.47;100.00
52735;BME280;38631;47.572;10.704;2023-05-07T01:33:38;92505.56;;;10.50;100.00
52735;BME280;38631;47.572;10.704;2023-05-07T01:36:06;92504.69;;;10.32;100.00
52735;BME280;38631;47.572;10.704;2023-05-07T01:38:34;92500.50;;;10.40;100.00
52735;BME280;38631;47.572;10.704;2023-05-07T01:41:01;92501.13;;;10.37;100.00
52735;BME280;38631;47.572;10.704;2023-05-07T01:43:26;92497.22;;;10.43;100.00
52735;BME280;38631;47.572;10.704;2023-05-07T01:45:52;92495.69;;;10.42;100.00
52735;BME280;38631;47.572;10.704;2023-05-07T01:48:18;92497.22;;;10.21;100.00
52735;BME280;38631;47.572;10.704;2023-05-07T01:50:44;92496.47;;;10.20;100.00
52735;BME280;38631;47.572;10.704;2023-05-07T01:53:09;92499.97;;;10.29;100.00
52735;BME280;38631;47.572;10.704;2023-05-07T01:55:35;92494.91;;;10.19;100.00
52735;BME280;38631;47.572;10.704;2023-05-07T01:58:02;92497.44;;;10.24;100.00
52735;BME280;38631;47.572;10.704;2023-05-07T02:00:27;92492.50;;;10.31;100.00
52735;BME280;38631;47.572;10.704;2023-05-07T02:02:52;92485.94;;;10.29;100.00
52735;BME280;38631;47.572;10.704;2023-05-07T02:05:18;92492.53;;;10.17;100.00
52735;BME280;38631;47.572;10.704;2023-05-07T02:07:43;92486.94;;;10.19;100.00
52735;BME280;38631;47.572;10.704;2023-05-07T02:10:09;92492.50;;;10.31;100.00
52735;BME280;38631;47.572;10.704;2023-05-07T02:12:35;92494.38;;;10.08;100.00
52735;BME280;38631;47.572;10.704;2023-05-07T02:15:00;92493.16;;;10.14;100.00
52735;BME280;38631;47.572;10.704;2023-05-07T02:17:25;92487.00;;;10.28;100.00
52735;BME280;38631;47.572;10.704;2023-05-07T02:19:51;92490.16;;;10.30;100.00
52735;BME280;38631;47.572;10.704;2023-05-07T02:22:17;92492.19;;;10.10;100.00
52735;BME280;38631;47.572;10.704;2023-05-07T02:24:43;92477.66;;;10.30;100.00
52735;BME280;38631;47.572;10.704;2023-05-07T02:27:09;92490.97;;;10.16;100.00
52735;BME280;38631;47.572;10.704;2023-05-07T02:29:35;92492.53;;;10.17;100.00
52735;BME280;38631;47.572;10.704;2023-05-07T02:32:00;92492.91;;;10.25;100.00
52735;BME280;38631;47.572;10.704;2023-05-07T02:34:26;92489.22;;;10.12;100.00
52735;BME280;38631;47.572;10.704;2023-05-07T02:36:52;92483.81;;;10.17;100.00
52735;BME280;38631;47.572;10.704;2023-05-07T02:39:17;92494.13;;;10.19;100.00
52735;BME280;38631;47.572;10.704;2023-05-07T02:41:42;92492.50;;;10.09;100.00
52735;BME280;38631;47.572;10.704;2023-05-07T02:44:08;92488.25;;;10.08;100.00
52735;BME280;38631;47.572;10.704;2023-05-07T02:46:34;92497.19;;;10.12;100.00
52735;BME280;38631;47.572;10.704;2023-05-07T02:48:59;92493.63;;;10.16;100.00
52735;BME280;38631;47.572;10.704;2023-05-07T02:51:25;92499.81;;;10.03;100.00
52735;BME280;38631;47.572;10.704;2023-05-07T02:53:51;92493.28;;;10.09;100.00
52735;BME280;38631;47.572;10.704;2023-05-07T02:56:16;92495.06;;;10.00;100.00
52735;BME280;38631;47.572;10.704;2023-05-07T02:58:41;92497.94;;;10.04;100.00
52735;BME280;38631;47.572;10.704;2023-05-07T03:01:07;92495.16;;;10.09;100.00
52735;BME280;38631;47.572;10.704;2023-05-07T03:03:33;92494.72;;;9.93;100.00
52735;BME280;38631;47.572;10.704;2023-05-07T03:05:58;92485.31;;;10.09;100.00
52735;BME280;38631;47.572;10.704;2023-05-07T03:08:24;92488.44;;;10.11;100.00
52735;BME280;38631;47.572;10.704;2023-05-07T03:10:49;92489.41;;;10.15;100.00
52735;BME280;38631;47.572;10.704;2023-05-07T03:13:15;92493.94;;;10.15;100.00
52735;BME280;38631;47.572;10.704;2023-05-07T03:15:40;92484.47;;;10.00;100.00
52735;BME280;38631;47.572;10.704;2023-05-07T03:18:06;92486.16;;;9.73;100.00
52735;BME280;38631;47.572;10.704;2023-05-07T03:20:31;92479.78;;;9.97;100.00
52735;BME280;38631;47.572;10.704;2023-05-07T03:22:57;92481.41;;;10.07;100.00
52735;BME280;38631;47.572;10.704;2023-05-07T03:25:22;92474.56;;;10.14;100.00
52735;BME280;38631;47.572;10.704;2023-05-07T03:27:48;92471.44;;;10.12;100.00
52735;BME280;38631;47.572;10.704;2023-05-07T03:30:13;92477.31;;;10.01;100.00
52735;BME280;38631;47.572;10.704;2023-05-07T03:32:39;92470.63;;;10.03;100.00
52735;BME280;38631;47.572;10.704;2023-05-07T03:35:05;92472.78;;;10.01;100.00
52735;BME280;38631;47.572;10.704;2023-05-07T03:37:30;92470.41;;;10.00;100.00
52735;BME280;38631;47.572;10.704;2023-05-07T03:39:56;92475.19;;;10.11;100.00
52735;BME280;38631;47.572;10.704;2023-05-07T03:42:21;92474.81;;;9.82;100.00
52735;BME280;38631;47.572;10.704;2023-05-07T03:44:46;92477.66;;;9.85;100.00
52735;BME280;38631;47.572;10.704;2023-05-07T03:47:12;92483.97;;;9.98;100.00
52735;BME280;38631;47.572;10.704;2023-05-07T03:49:38;92489.66;;;10.05;100.00
52735;BME280;38631;47.572;10.704;2023-05-07T03:52:04;92476.81;;;9.99;100.00
52735;BME280;38631;47.572;10.704;2023-05-07T03:54:30;92481.44;;;9.93;100.00
52735;BME280;38631;47.572;10.704;2023-05-07T03:56:55;92481.00;;;9.91;100.00
52735;BME280;38631;47.572;10.704;2023-05-07T03:59:22;92489.66;;;9.83;100.00
52735;BME280;38631;47.572;10.704;2023-05-07T04:01:47;92476.25;;;9.88;100.00
52735;BME280;38631;47.572;10.704;2023-05-07T04:04:14;92480.50;;;9.89;100.00
52735;BME280;38631;47.572;10.704;2023-05-07T04:06:39;92483.75;;;9.86;100.00
52735;BME280;38631;47.572;10.704;2023-05-07T04:09:05;92479.84;;;9.83;100.00
52735;BME280;38631;47.572;10.704;2023-05-07T04:11:31;92490.63;;;9.87;100.00
52735;BME280;38631;47.572;10.704;2023-05-07T04:13:57;92489.19;;;9.81;100.00
52735;BME280;38631;47.572;10.704;2023-05-07T04:16:22;92481.22;;;9.81;100.00
52735;BME280;38631;47.572;10.704;2023-05-07T04:18:47;92487.94;;;10.01;100.00
52735;BME280;38631;47.572;10.704;2023-05-07T04:21:17;92489.34;;;9.84;100.00
52735;BME280;38631;47.572;10.704;2023-05-07T04:23:43;92481.69;;;9.83;100.00
52735;BME280;38631;47.572;10.704;2023-05-07T04:26:08;92495.97;;;9.95;100.00
52735;BME280;38631;47.572;10.704;2023-05-07T04:28:34;92496.91;;;10.13;100.00
52735;BME280;38631;47.572;10.704;2023-05-07T04:31:00;92496.91;;;10.13;100.00
52735;BME280;38631;47.572;10.704;2023-05-07T04:33:25;92500.34;;;9.91;100.00
52735;BME280;38631;47.572;10.704;2023-05-07T04:35:51;92502.09;;;9.96;100.00
52735;BME280;38631;47.572;10.704;2023-05-07T04:38:16;92511.22;;;10.12;100.00
52735;BME280;38631;47.572;10.704;2023-05-07T04:40:43;92508.25;;;10.28;100.00
52735;BME280;38631;47.572;10.704;2023-05-07T04:43:09;92501.09;;;10.28;100.00
52735;BME280;38631;47.572;10.704;2023-05-07T04:45:35;92503.28;;;10.35;100.00
52735;BME280;38631;47.572;10.704;2023-05-07T04:48:00;92496.47;;;10.20;100.00
52735;BME280;38631;47.572;10.704;2023-05-07T04:50:26;92493.19;;;10.23;100.00
52735;BME280;38631;47.572;10.704;2023-05-07T04:52:51;92494.06;;;10.32;100.00
52735;BME280;38631;47.572;10.704;2023-05-07T04:55:17;92491.16;;;10.43;100.00
52735;BME280;38631;47.572;10.704;2023-05-07T04:57:42;92498.28;;;10.65;100.00
52735;BME280;38631;47.572;10.704;2023-05-07T05:00:08;92499.72;;;10.71;100.00
52735;BME280;38631;47.572;10.704;2023-05-07T05:02:34;92502.28;;;10.85;100.00
52735;BME280;38631;47.572;10.704;2023-05-07T05:05:00;92499.97;;;10.92;100.00
52735;BME280;38631;47.572;10.704;2023-05-07T05:07:27;92513.16;;;11.14;100.00
52735;BME280;38631;47.572;10.704;2023-05-07T05:09:52;92509.94;;;11.26;100.00
52735;BME280;38631;47.572;10.704;2023-05-07T05:12:18;92515.19;;;11.17;100.00
52735;BME280;38631;47.572;10.704;2023-05-07T05:14:43;92507.66;;;11.11;100.00
52735;BME280;38631;47.572;10.704;2023-05-07T05:17:09;92513.03;;;11.28;100.00
52735;BME280;38631;47.572;10.704;2023-05-07T05:19:34;92512.41;;;11.22;100.00
52735;BME280;38631;47.572;10.704;2023-05-07T05:21:59;92515.72;;;11.37;100.00
52735;BME280;38631;47.572;10.704;2023-05-07T05:24:26;92520.09;;;11.33;100.00
52735;BME280;38631;47.572;10.704;2023-05-07T05:26:53;92529.84;;;11.72;100.00
52735;BME280;38631;47.572;10.704;2023-05-07T05:29:18;92522.31;;;11.48;100.00
52735;BME280;38631;47.572;10.704;2023-05-07T05:31:43;92523.47;;;11.82;100.00
52735;BME280;38631;47.572;10.704;2023-05-07T05:34:09;92526.91;;;12.08;100.00
52735;BME280;38631;47.572;10.704;2023-05-07T05:36:34;92535.69;;;12.09;100.00
52735;BME280;38631;47.572;10.704;2023-05-07T05:38:59;92525.50;;;12.28;100.00
52735;BME280;38631;47.572;10.704;2023-05-07T05:41:25;92531.28;;;12.39;100.00
52735;BME280;38631;47.572;10.704;2023-05-07T05:43:50;92525.78;;;12.36;100.00
52735;BME280;38631;47.572;10.704;2023-05-07T05:46:16;92530.50;;;12.39;100.00
52735;BME280;38631;47.572;10.704;2023-05-07T05:48:41;92538.81;;;12.28;100.00
52735;BME280;38631;47.572;10.704;2023-05-07T05:51:07;92535.50;;;12.49;100.00
52735;BME280;38631;47.572;10.704;2023-05-07T05:53:32;92532.91;;;12.79;100.00
52735;BME280;38631;47.572;10.704;2023-05-07T05:55:57;92533.84;;;12.83;100.00
52735;BME280;38631;47.572;10.704;2023-05-07T05:58:23;92532.91;;;12.79;100.00
52735;BME280;38631;47.572;10.704;2023-05-07T06:00:48;92534.03;;;12.78;100.00
52735;BME280;38631;47.572;10.704;2023-05-07T06:03:16;92531.31;;;12.86;100.00
52735;BME280;38631;47.572;10.704;2023-05-07T06:05:41;92535.22;;;12.89;100.00
52735;BME280;38631;47.572;10.704;2023-05-07T06:08:07;92532.13;;;12.78;100.00
52735;BME280;38631;47.572;10.704;2023-05-07T06:10:32;92537.78;;;12.77;100.00
52735;BME280;38631;47.572;10.704;2023-05-07T06:12:58;92536.97;;;12.85;100.00
52735;BME280;38631;47.572;10.704;2023-05-07T06:15:23;92540.84;;;12.96;100.00
52735;BME280;38631;47.572;10.704;2023-05-07T06:17:49;92543.34;;;13.01;100.00
52735;BME280;38631;47.572;10.704;2023-05-07T06:20:14;92550.81;;;13.16;97.04
52735;BME280;38631;47.572;10.704;2023-05-07T06:22:39;92541.72;;;13.17;95.80
52735;BME280;38631;47.572;10.704;2023-05-07T06:25:05;92548.44;;;13.24;94.77
52735;BME280;38631;47.572;10.704;2023-05-07T06:27:30;92543.09;;;13.24;92.91
52735;BME280;38631;47.572;10.704;2023-05-07T06:29:56;92534.75;;;13.34;93.75
52735;BME280;38631;47.572;10.704;2023-05-07T06:32:21;92533.03;;;13.38;92.66
52735;BME280;38631;47.572;10.704;2023-05-07T06:34:47;92529.25;;;13.39;93.30
52735;BME280;38631;47.572;10.704;2023-05-07T06:37:12;92540.66;;;13.48;93.71
52735;BME280;38631;47.572;10.704;2023-05-07T06:39:37;92543.19;;;13.74;93.42
52735;BME280;38631;47.572;10.704;2023-05-07T06:42:03;92539.09;;;13.98;92.59
52735;BME280;38631;47.572;10.704;2023-05-07T06:44:29;92540.19;;;14.18;92.80
52735;BME280;38631;47.572;10.704;2023-05-07T06:46:55;92542.81;;;14.05;91.22
52735;BME280;38631;47.572;10.704;2023-05-07T06:49:20;92540.47;;;14.25;89.99
52735;BME280;38631;47.572;10.704;2023-05-07T06:51:46;92542.97;;;14.42;88.58
52735;BME280;38631;47.572;10.704;2023-05-07T06:54:11;92547.75;;;14.58;89.63
52735;BME280;38631;47.572;10.704;2023-05-07T06:56:37;92545.16;;;14.28;89.82
52735;BME280;38631;47.572;10.704;2023-05-07T06:59:02;92543.25;;;14.50;89.94
52735;BME280;38631;47.572;10.704;2023-05-07T07:01:28;92551.47;;;14.78;90.48
52735;BME280;38631;47.572;10.704;2023-05-07T07:03:54;92546.91;;;14.78;89.86
52735;BME280;38631;47.572;10.704;2023-05-07T07:06:19;92547.31;;;14.68;90.07
52735;BME280;38631;47.572;10.704;2023-05-07T07:08:45;92545.34;;;14.77;91.46
52735;BME280;38631;47.572;10.704;2023-05-07T07:11:10;92551.13;;;14.79;89.74
52735;BME280;38631;47.572;10.704;2023-05-07T07:13:36;92548.81;;;14.78;89.63
52735;BME280;38631;47.572;10.704;2023-05-07T07:16:01;92553.38;;;14.77;89.50
52735;BME280;38631;47.572;10.704;2023-05-07T07:18:27;92550.50;;;14.95;91.48
52735;BME280;38631;47.572;10.704;2023-05-07T07:20:52;92550.09;;;15.05;90.78
52735;BME280;38631;47.572;10.704;2023-05-07T07:23:18;92546.06;;;14.99;91.46
52735;BME280;38631;47.572;10.704;2023-05-07T07:25:43;92545.06;;;15.03;92.04
52735;BME280;38631;47.572;10.704;2023-05-07T07:28:09;92545.53;;;15.18;91.41
52735;BME280;38631;47.572;10.704;2023-05-07T07:30:35;92540.75;;;15.11;91.32
52735;BME280;38631;47.572;10.704;2023-05-07T07:33:01;92549.44;;;15.08;89.89
52735;BME280;38631;47.572;10.704;2023-05-07T07:35:36;92543.09;;;15.12;90.89
52735;BME280;38631;47.572;10.704;2023-05-07T07:38:02;92535.94;;;15.17;90.82
52735;BME280;38631;47.572;10.704;2023-05-07T07:40:27;92533.19;;;15.25;91.56
52735;BME280;38631;47.572;10.704;2023-05-07T07:42:53;92540.31;;;15.33;91.02
52735;BME280;38631;47.572;10.704;2023-05-07T07:45:19;92542.44;;;15.40;89.97
52735;BME280;38631;47.572;10.704;2023-05-07T07:47:45;92533.75;;;15.43;90.23
52735;BME280;38631;47.572;10.704;2023-05-07T07:50:10;92541.53;;;15.61;88.46
52735;BME280;38631;47.572;10.704;2023-05-07T07:52:36;92543.03;;;15.70;88.53
52735;BME280;38631;47.572;10.704;2023-05-07T07:55:01;92544.00;;;15.78;90.37
52735;BME280;38631;47.572;10.704;2023-05-07T07:57:27;92544.78;;;15.79;88.16
52735;BME280;38631;47.572;10.704;2023-05-07T07:59:53;92540.53;;;15.65;89.16
52735;BME280;38631;47.572;10.704;2023-05-07T08:02:19;92545.09;;;15.65;88.69
52735;BME280;38631;47.572;10.704;2023-05-07T08:04:44;92538.09;;;15.48;87.22
52735;BME280;38631;47.572;10.704;2023-05-07T08:07:10;92543.78;;;15.46;88.31
52735;BME280;38631;47.572;10.704;2023-05-07T08:09:37;92546.56;;;15.74;88.56
52735;BME280;38631;47.572;10.704;2023-05-07T08:12:03;92544.44;;;15.68;87.88
52735;BME280;38631;47.572;10.704;2023-05-07T08:14:28;92541.22;;;15.50;87.67
52735;BME280;38631;47.572;10.704;2023-05-07T08:16:54;92550.34;;;15.61;87.49
52735;BME280;38631;47.572;10.704;2023-05-07T08:19:20;92550.56;;;15.68;88.65
52735;BME280;38631;47.572;10.704;2023-05-07T08:21:48;92554.03;;;15.81;89.36
52735;BME280;38631;47.572;10.704;2023-05-07T08:24:16;92552.13;;;15.82;89.37
52735;BME280;38631;47.572;10.704;2023-05-07T08:26:43;92556.41;;;15.83;87.88
52735;BME280;38631;47.572;10.704;2023-05-07T08:29:08;92556.50;;;15.86;87.16
52735;BME280;38631;47.572;10.704;2023-05-07T08:31:34;92552.09;;;16.06;87.63
52735;BME280;38631;47.572;10.704;2023-05-07T08:33:59;92557.69;;;16.01;85.17
52735;BME280;38631;47.572;10.704;2023-05-07T08:36:25;92558.94;;;15.79;84.27
52735;BME280;38631;47.572;10.704;2023-05-07T08:38:51;92556.72;;;15.93;84.69
52735;BME280;38631;47.572;10.704;2023-05-07T08:41:16;92555.91;;;16.05;84.23
52735;BME280;38631;47.572;10.704;2023-05-07T08:43:48;92558.69;;;16.09;83.83
52735;BME280;38631;47.572;10.704;2023-05-07T08:46:20;92553.56;;;16.04;85.58
52735;BME280;38631;47.572;10.704;2023-05-07T08:48:48;92551.91;;;15.99;85.00
52735;BME280;38631;47.572;10.704;2023-05-07T08:51:17;92561.50;;;16.00;85.08
52735;BME280;38631;47.572;10.704;2023-05-07T08:53:43;92561.94;;;16.02;83.02
52735;BME280;38631;47.572;10.704;2023-05-07T08:56:09;92560.81;;;16.15;83.84
52735;BME280;38631;47.572;10.704;2023-05-07T08:58:35;92565.25;;;16.24;84.69
52735;BME280;38631;47.572;10.704;2023-05-07T09:01:07;92560.47;;;16.05;82.31
52735;BME280;38631;47.572;10.704;2023-05-07T09:03:33;92562.91;;;16.10;82.91
52735;BME280;38631;47.572;10.704;2023-05-07T09:05:58;92558.38;;;16.10;82.85
52735;BME280;38631;47.572;10.704;2023-05-07T09:08:27;92563.47;;;16.15;81.18
52735;BME280;38631;47.572;10.704;2023-05-07T09:10:53;92559.13;;;16.11;80.11
52735;BME280;38631;47.572;10.704;2023-05-07T09:13:19;92560.56;;;16.20;80.70
52735;BME280;38631;47.572;10.704;2023-05-07T09:15:44;92561.75;;;16.35;78.71
52735;BME280;38631;47.572;10.704;2023-05-07T09:18:10;92556.31;;;16.19;78.17
52735;BME280;38631;47.572;10.704;2023-05-07T09:20:39;92555.78;;;16.14;75.81
52735;BME280;38631;47.572;10.704;2023-05-07T09:23:06;92565.94;;;16.08;76.82
52735;BME280;38631;47.572;10.704;2023-05-07T09:25:33;92564.25;;;16.16;75.23
52735;BME280;38631;47.572;10.704;2023-05-07T09:28:00;92564.00;;;16.33;77.18
52735;BME280;38631;47.572;10.704;2023-05-07T09:30:32;92560.38;;;16.41;78.54
52735;BME280;38631;47.572;10.704;2023-05-07T09:33:00;92549.00;;;16.73;78.08
52735;BME280;38631;47.572;10.704;2023-05-07T09:35:25;92553.28;;;16.61;76.38
52735;BME280;38631;47.572;10.704;2023-05-07T09:37:53;92551.59;;;16.29;75.38
52735;BME280;38631;47.572;10.704;2023-05-07T09:40:29;92559.38;;;16.46;77.87
52735;BME280;38631;47.572;10.704;2023-05-07T09:42:55;92555.38;;;16.68;78.31
52735;BME280;38631;47.572;10.704;2023-05-07T09:45:29;92546.66;;;16.71;76.01
52735;BME280;38631;47.572;10.704;2023-05-07T09:47:56;92555.50;;;16.59;74.33
52735;BME280;38631;47.572;10.704;2023-05-07T09:50:27;92552.44;;;16.86;74.20
52735;BME280;38631;47.572;10.704;2023-05-07T09:52:54;92558.44;;;16.82;74.79
52735;BME280;38631;47.572;10.704;2023-05-07T09:55:20;92562.09;;;16.62;72.14
52735;BME280;38631;47.572;10.704;2023-05-07T09:57:48;92551.72;;;16.60;74.42
52735;BME280;38631;47.572;10.704;2023-05-07T10:00:17;92555.47;;;16.72;75.53
52735;BME280;38631;47.572;10.704;2023-05-07T10:02:48;92556.91;;;16.81;73.50
52735;BME280;38631;47.572;10.704;2023-05-07T10:05:14;92554.00;;;17.02;73.74
52735;BME280;38631;47.572;10.704;2023-05-07T10:07:40;92557.81;;;17.01;74.80
52735;BME280;38631;47.572;10.704;2023-05-07T10:10:06;92562.03;;;17.02;72.85
52735;BME280;38631;47.572;10.704;2023-05-07T10:12:32;92552.53;;;17.05;72.67
52735;BME280;38631;47.572;10.704;2023-05-07T10:15:05;92550.97;;;17.04;72.26
52735;BME280;38631;47.572;10.704;2023-05-07T10:17:35;92557.81;;;17.17;71.97
52735;BME280;38631;47.572;10.704;2023-05-07T10:20:01;92553.41;;;17.25;71.65
52735;BME280;38631;47.572;10.704;2023-05-07T10:22:27;92553.41;;;17.09;64.22
52735;BME280;38631;47.572;10.704;2023-05-07T10:24:55;92554.03;;;17.18;66.22
52735;BME280;38631;47.572;10.704;2023-05-07T10:27:24;92548.41;;;17.23;69.73
52735;BME280;38631;47.572;10.704;2023-05-07T10:32:44;92546.75;;;17.35;72.58
52735;BME280;38631;47.572;10.704;2023-05-07T10:35:16;92537.91;;;17.34;72.18
52735;BME280;38631;47.572;10.704;2023-05-07T10:37:43;92533.44;;;17.38;70.29
52735;BME280;38631;47.572;10.704;2023-05-07T10:40:10;92542.88;;;17.48;71.02
52735;BME280;38631;47.572;10.704;2023-05-07T10:42:36;92541.38;;;17.35;67.72
52735;BME280;38631;47.572;10.704;2023-05-07T10:45:15;92537.06;;;17.46;68.25
52735;BME280;38631;47.572;10.704;2023-05-07T10:50:33;92542.84;;;17.64;65.97
52735;BME280;38631;47.572;10.704;2023-05-07T10:55:43;92539.22;;;17.56;66.01
52735;BME280;38631;47.572;10.704;2023-05-07T11:00:46;92539.13;;;17.53;65.14
52735;BME280;38631;47.572;10.704;2023-05-07T11:03:12;92537.47;;;17.64;65.89
52735;BME280;38631;47.572;10.704;2023-05-07T11:05:38;92542.44;;;17.46;66.74
52735;BME280;38631;47.572;10.704;2023-05-07T11:08:05;92537.72;;;17.43;67.08
52735;BME280;38631;47.572;10.704;2023-05-07T11:10:51;92541.28;;;17.47;66.74
52735;BME280;38631;47.572;10.704;2023-05-07T11:13:18;92538.88;;;17.42;67.96
52735;BME280;38631;47.572;10.704;2023-05-07T11:15:48;92541.47;;;17.38;68.23
52735;BME280;38631;47.572;10.704;2023-05-07T11:18:16;92536.25;;;17.45;75.93
52735;BME280;38631;47.572;10.704;2023-05-07T11:26:15;92529.16;;;16.77;68.56
52735;BME280;38631;47.572;10.704;2023-05-07T11:28:42;92529.31;;;16.81;68.07
52735;BME280;38631;47.572;10.704;2023-05-07T11:31:09;92529.19;;;17.05;66.54
52735;BME280;38631;47.572;10.704;2023-05-07T11:33:35;92531.25;;;17.12;67.78
52735;BME280;38631;47.572;10.704;2023-05-07T11:36:02;92525.19;;;17.31;66.84
52735;BME280;38631;47.572;10.704;2023-05-07T11:38:29;92527.78;;;17.43;63.56
52735;BME280;38631;47.572;10.704;2023-05-07T11:40:56;92530.13;;;17.45;62.73
52735;BME280;38631;47.572;10.704;2023-05-07T11:43:22;92529.16;;;17.37;60.55
52735;BME280;38631;47.572;10.704;2023-05-07T11:45:48;92526.84;;;17.36;62.17
52735;BME280;38631;47.572;10.704;2023-05-07T11:48:15;92534.19;;;17.39;64.70
52735;BME280;38631;47.572;10.704;2023-05-07T11:51:01;92533.84;;;17.09;62.34
52735;BME280;38631;47.572;10.704;2023-05-07T11:53:31;92532.47;;;17.15;63.01
52735;BME280;38631;47.572;10.704;2023-05-07T11:56:00;92536.09;;;17.06;62.38
52735;BME280;38631;47.572;10.704;2023-05-07T11:58:25;92534.44;;;17.02;61.83
52735;BME280;38631;47.572;10.704;2023-05-07T12:00:52;92537.91;;;17.02;62.19
52735;BME280;38631;47.572;10.704;2023-05-07T12:03:17;92539.63;;;16.95;63.47
52735;BME280;38631;47.572;10.704;2023-05-07T12:05:44;92543.25;;;16.87;64.57
52735;BME280;38631;47.572;10.704;2023-05-07T12:08:17;92550.00;;;16.80;66.48
52735;BME280;38631;47.572;10.704;2023-05-07T12:10:48;92546.41;;;16.76;65.96
52735;BME280;38631;47.572;10.704;2023-05-07T12:13:23;92551.75;;;16.76;67.92
52735;BME280;38631;47.572;10.704;2023-05-07T12:15:55;92554.97;;;16.54;72.83
52735;BME280;38631;47.572;10.704;2023-05-07T12:18:22;92561.75;;;16.35;78.05
52735;BME280;38631;47.572;10.704;2023-05-07T12:20:48;92556.66;;;16.18;79.47
52735;BME280;38631;47.572;10.704;2023-05-07T12:23:15;92556.66;;;16.18;81.71
52735;BME280;38631;47.572;10.704;2023-05-07T12:25:43;92553.00;;;16.10;82.06
52735;BME280;38631;47.572;10.704;2023-05-07T12:28:16;92553.34;;;16.09;84.67
52735;BME280;38631;47.572;10.704;2023-05-07T12:30:43;92555.03;;;15.89;89.01
52735;BME280;38631;47.572;10.704;2023-05-07T12:33:10;92551.06;;;15.70;90.68
52735;BME280;38631;47.572;10.704;2023-05-07T12:35:42;92549.47;;;15.82;89.76
52735;BME280;38631;47.572;10.704;2023-05-07T12:38:13;92553.72;;;15.70;87.33
52735;BME280;38631;47.572;10.704;2023-05-07T12:40:53;92539.78;;;15.52;83.20
52735;BME280;38631;47.572;10.704;2023-05-07T12:43:20;92540.19;;;15.54;82.62
52735;BME280;38631;47.572;10.704;2023-05-07T12:45:48;92534.06;;;15.54;81.41
52735;BME280;38631;47.572;10.704;2023-05-07T12:48:14;92534.19;;;15.58;84.64
52735;BME280;38631;47.572;10.704;2023-05-07T12:50:39;92532.16;;;15.67;83.30
52735;BME280;38631;47.572;10.704;2023-05-07T12:53:06;92529.94;;;15.81;79.59
52735;BME280;38631;47.572;10.704;2023-05-07T12:55:40;92528.34;;;15.92;77.05
52735;BME280;38631;47.572;10.704;2023-05-07T12:58:06;92524.88;;;16.04;74.98